Time;durP1;ratioP1;P1;durP2;ratioP2;P2;SDS_P1;SDS_P2;PMS_P1;PMS_P2;Temp;Humidity;BMP_temperature;BMP_pressure;BME280_temperature;BME280_humidity;BME280_pressure;Samples;Min_cycle;Max_cycle;Signal;HPM_P1;HPM_P2
2021/05/17 00:02:26;;;;;;;9.23;6.00;;;10.60;99.90;;;;;;5080104;28;20457;-67
2021/05/17 00:04:52;;;;;;;8.02;5.63;;;10.60;99.90;;;;;;5068603;28;20031;-67
2021/05/17 00:07:20;;;;;;;9.50;6.80;;;10.60;99.90;;;;;;5079032;28;20024;-66
2021/05/17 00:09:48;;;;;;;8.88;5.70;;;10.60;99.90;;;;;;5078981;28;20028;-66
2021/05/17 00:12:14;;;;;;;8.65;5.35;;;10.60;99.90;;;;;;5077531;28;20024;-66
2021/05/17 00:14:40;;;;;;;8.77;5.82;;;10.60;99.90;;;;;;5072710;28;20121;-66
2021/05/17 00:17:08;;;;;;;10.75;6.22;;;10.60;99.90;;;;;;5076866;28;20494;-66
2021/05/17 00:19:37;;;;;;;9.35;5.13;;;10.50;99.90;;;;;;5079011;28;21555;-66
2021/05/17 00:22:08;;;;;;;8.52;5.38;;;10.50;99.90;;;;;;5080534;28;20131;-66
2021/05/17 00:24:36;;;;;;;11.68;5.57;;;10.50;99.90;;;;;;5079633;28;20063;-66
2021/05/17 00:27:04;;;;;;;10.38;5.53;;;10.50;99.90;;;;;;5078721;28;20087;-66
2021/05/17 00:29:29;;;;;;;7.85;5.47;;;10.50;99.90;;;;;;5071520;28;20039;-66
2021/05/17 00:31:55;;;;;;;9.38;6.07;;;10.40;99.90;;;;;;5079207;28;20028;-66
2021/05/17 00:34:21;;;;;;;8.35;5.45;;;10.40;99.90;;;;;;5074466;28;20029;-66
2021/05/17 00:36:47;;;;;;;8.35;4.97;;;10.40;99.90;;;;;;5081803;28;20077;-66
2021/05/17 00:39:13;;;;;;;7.85;5.40;;;10.40;99.90;;;;;;5078493;28;20020;-65
2021/05/17 00:41:41;;;;;;;9.90;5.20;;;10.40;99.90;;;;;;5077206;28;20347;-66
2021/05/17 00:44:07;;;;;;;7.72;5.18;;;10.40;99.90;;;;;;5070088;28;20091;-66
2021/05/17 00:46:33;;;;;;;6.70;3.72;;;10.40;99.90;;;;;;5051280;28;20029;-66
2021/05/17 00:49:02;;;;;;;5.95;3.45;;;10.30;99.90;;;;;;5067120;28;20110;-66
2021/05/17 00:51:31;;;;;;;7.93;4.00;;;10.30;99.90;;;;;;5071338;28;20552;-66
2021/05/17 00:53:57;;;;;;;6.38;3.15;;;10.30;99.90;;;;;;5069041;28;20036;-66
2021/05/17 00:56:23;;;;;;;6.22;3.20;;;10.30;99.90;;;;;;5058510;28;20091;-65
2021/05/17 00:58:51;;;;;;;7.28;2.85;;;10.20;99.90;;;;;;5054196;28;20582;-66
2021/05/17 01:01:19;;;;;;;6.55;2.42;;;10.20;99.90;;;;;;5068159;28;20036;-66
2021/05/17 01:03:45;;;;;;;5.05;2.25;;;10.20;99.90;;;;;;5056789;28;20032;-66
2021/05/17 01:06:11;;;;;;;6.90;2.30;;;10.10;99.90;;;;;;5068832;28;20036;-66
2021/05/17 01:08:53;;;;;;;5.25;1.90;;;10.10;99.90;;;;;;5068062;28;20035;-66
2021/05/17 01:11:24;;;;;;;3.90;2.00;;;10.20;99.90;;;;;;5069243;28;20028;-66
2021/05/17 01:13:50;;;;;;;5.75;2.10;;;10.00;99.90;;;;;;5067951;28;20020;-66
2021/05/17 01:16:18;;;;;;;6.53;2.08;;;10.10;99.90;;;;;;5065812;28;20039;-66
2021/05/17 01:18:47;;;;;;;4.30;2.03;;;10.10;99.90;;;;;;5070928;28;20032;-66
2021/05/17 01:21:15;;;;;;;5.53;1.98;;;10.00;99.90;;;;;;5065187;28;20032;-66
2021/05/17 01:23:46;;;;;;;3.92;2.00;;;10.00;99.90;;;;;;5067215;28;20531;-66
2021/05/17 01:26:14;;;;;;;3.75;2.08;;;10.00;99.90;;;;;;5066553;28;20028;-65
2021/05/17 01:28:40;;;;;;;4.07;2.05;;;10.00;99.90;;;;;;5066154;28;20527;-66
2021/05/17 01:31:07;;;;;;;4.75;2.25;;;10.00;99.90;;;;;;5069509;28;20036;-66
2021/05/17 01:33:43;;;;;;;5.22;2.45;;;10.00;99.90;;;;;;5073327;28;20028;-66
2021/05/17 01:36:10;;;;;;;5.88;2.45;;;10.00;99.90;;;;;;5077027;28;20140;-66
2021/05/17 01:38:40;;;;;;;4.00;2.20;;;10.00;99.90;;;;;;5077551;28;20081;-66
2021/05/17 01:41:14;;;;;;;5.60;2.20;;;10.00;99.90;;;;;;5075162;28;20032;-66
2021/05/17 01:43:46;;;;;;;5.40;2.63;;;10.00;99.90;;;;;;5074942;28;20052;-66
2021/05/17 01:46:16;;;;;;;6.25;2.30;;;10.10;99.90;;;;;;5073165;28;20028;-65
2021/05/17 01:48:46;;;;;;;4.38;2.10;;;10.00;99.90;;;;;;5066545;28;20052;-65
2021/05/17 01:51:17;;;;;;;5.57;2.55;;;10.10;99.90;;;;;;5067576;28;20037;-65
2021/05/17 01:53:43;;;;;;;4.13;2.15;;;10.00;99.90;;;;;;5069278;28;20070;-66
2021/05/17 01:56:09;;;;;;;4.53;2.53;;;10.00;99.90;;;;;;5067808;28;20159;-66
2021/05/17 01:58:39;;;;;;;4.03;2.40;;;10.10;99.90;;;;;;5071464;28;20034;-66
2021/05/17 02:01:08;;;;;;;6.05;2.45;;;10.10;99.90;;;;;;5071599;28;20048;-66
2021/05/17 02:03:38;;;;;;;4.05;2.45;;;10.20;99.90;;;;;;5073845;28;20037;-66
2021/05/17 02:06:05;;;;;;;4.22;2.40;;;10.10;99.90;;;;;;5064888;28;21906;-65
2021/05/17 02:08:35;;;;;;;6.30;2.58;;;10.10;99.90;;;;;;5059853;28;20024;-66
2021/05/17 02:11:03;;;;;;;5.18;2.50;;;10.10;99.90;;;;;;5070637;28;20092;-66
2021/05/17 02:13:32;;;;;;;4.88;2.30;;;10.10;99.90;;;;;;5065650;28;20028;-66
2021/05/17 02:16:00;;;;;;;5.85;2.00;;;10.10;99.90;;;;;;5071884;28;20043;-65
2021/05/17 02:18:30;;;;;;;6.05;2.50;;;10.10;99.90;;;;;;5073033;28;20694;-65
2021/05/17 02:20:56;;;;;;;4.18;1.98;;;10.10;99.90;;;;;;5091537;28;20500;-65
2021/05/17 02:23:22;;;;;;;5.50;2.75;;;10.20;99.90;;;;;;5078800;28;20076;-64
2021/05/17 02:25:49;;;;;;;5.93;2.40;;;10.10;99.90;;;;;;5073460;28;20036;-66
2021/05/17 02:28:17;;;;;;;4.47;2.10;;;10.10;99.90;;;;;;5075619;28;20016;-66
2021/05/17 02:30:43;;;;;;;4.38;2.20;;;10.20;99.90;;;;;;5080580;28;20050;-66
2021/05/17 02:33:12;;;;;;;4.55;2.10;;;10.10;99.90;;;;;;5078121;28;20024;-66
2021/05/17 02:35:40;;;;;;;3.88;2.10;;;10.20;99.90;;;;;;5077271;28;20093;-66
2021/05/17 02:38:09;;;;;;;5.43;2.60;;;10.10;99.90;;;;;;5078294;28;20016;-66
2021/05/17 02:40:34;;;;;;;4.95;1.90;;;10.10;99.90;;;;;;5081387;28;20351;-66
2021/05/17 02:43:11;;;;;;;5.45;2.58;;;10.10;99.90;;;;;;5078292;28;20100;-66
2021/05/17 02:45:40;;;;;;;5.80;2.70;;;10.10;99.90;;;;;;5060033;28;20031;-66
2021/05/17 02:48:06;;;;;;;4.57;2.78;;;10.10;99.90;;;;;;5072598;28;20029;-66
2021/05/17 02:50:35;;;;;;;4.22;2.70;;;10.10;99.90;;;;;;5073465;28;20055;-66
2021/05/17 02:53:21;;;;;;;6.13;3.22;;;10.00;99.90;;;;;;5071507;28;20024;-66
2021/05/17 02:55:46;;;;;;;5.40;3.63;;;10.00;99.90;;;;;;5071250;28;20107;-66
2021/05/17 02:58:13;;;;;;;5.10;3.30;;;9.90;99.90;;;;;;5070452;28;20027;-66
2021/05/17 03:00:39;;;;;;;5.93;3.30;;;9.90;99.90;;;;;;5056537;28;20082;-66
2021/05/17 03:03:14;;;;;;;4.93;3.10;;;10.00;99.90;;;;;;5087823;28;20119;-66
2021/05/17 03:05:43;;;;;;;7.85;3.90;;;9.90;99.90;;;;;;5070369;28;20081;-64
2021/05/17 03:08:13;;;;;;;6.90;4.30;;;9.80;99.90;;;;;;5058154;28;20028;-65
2021/05/17 03:10:42;;;;;;;8.75;4.18;;;9.70;99.90;;;;;;5070620;28;20055;-66
2021/05/17 03:13:12;;;;;;;7.07;3.90;;;9.80;99.90;;;;;;5070081;28;20048;-66
2021/05/17 03:15:38;;;;;;;6.45;3.55;;;9.60;99.90;;;;;;5078899;28;20048;-66
2021/05/17 03:18:09;;;;;;;5.68;3.03;;;9.60;99.90;;;;;;5078954;28;20016;-66
2021/05/17 03:20:35;;;;;;;5.72;3.55;;;9.70;99.90;;;;;;5063379;28;20020;-65
2021/05/17 03:23:03;;;;;;;5.53;3.30;;;9.60;99.90;;;;;;5072263;28;20375;-65
2021/05/17 03:25:35;;;;;;;5.95;3.17;;;9.70;99.90;;;;;;5076963;28;20032;-66
2021/05/17 03:28:05;;;;;;;6.68;3.30;;;9.70;99.90;;;;;;5075795;28;20040;-65
2021/05/17 03:30:31;;;;;;;7.38;3.80;;;9.70;99.90;;;;;;5068791;28;20085;-65
2021/05/17 03:33:01;;;;;;;5.25;3.40;;;9.70;99.90;;;;;;5071529;28;20036;-65
2021/05/17 03:35:27;;;;;;;9.13;3.30;;;9.70;99.90;;;;;;5054051;28;20046;-66
2021/05/17 03:37:55;;;;;;;5.85;3.45;;;9.80;99.90;;;;;;5073380;28;20111;-66
2021/05/17 03:40:26;;;;;;;5.70;3.38;;;9.70;99.90;;;;;;5079905;28;20513;-65
2021/05/17 03:42:51;;;;;;;7.15;3.40;;;9.80;99.90;;;;;;5079332;28;20040;-65
2021/05/17 03:45:19;;;;;;;5.38;3.22;;;9.70;99.90;;;;;;5079504;28;20135;-66
2021/05/17 03:47:49;;;;;;;5.20;3.40;;;9.70;99.90;;;;;;5071419;28;20032;-65
2021/05/17 03:50:17;;;;;;;8.65;4.45;;;9.80;99.90;;;;;;5069541;28;20089;-65
2021/05/17 03:52:45;;;;;;;7.10;3.45;;;9.80;99.90;;;;;;5068081;28;20476;-65
2021/05/17 03:55:11;;;;;;;4.75;3.40;;;9.80;99.90;;;;;;5070773;28;20535;-66
2021/05/17 03:57:37;;;;;;;8.80;3.95;;;9.80;99.90;;;;;;5076511;28;20040;-66
2021/05/17 04:00:08;;;;;;;4.60;2.80;;;9.80;99.90;;;;;;5080291;28;20039;-65
2021/05/17 04:02:34;;;;;;;6.28;3.50;;;9.80;99.90;;;;;;5070159;28;20047;-65
2021/05/17 04:05:16;;;;;;;5.65;3.58;;;9.80;99.90;;;;;;5071021;28;20024;-65
2021/05/17 04:13:21;;;;;;;6.20;3.63;;;9.80;99.90;;;;;;5076553;28;20035;-65
2021/05/17 04:15:48;;;;;;;7.45;3.65;;;9.80;99.90;;;;;;5060471;28;20020;-65
2021/05/17 04:18:19;;;;;;;8.20;3.42;;;9.90;99.90;;;;;;5068272;28;20025;-66
2021/05/17 04:20:45;;;;;;;7.15;3.95;;;9.90;99.90;;;;;;5055486;28;20017;-66
2021/05/17 04:23:13;;;;;;;6.95;4.43;;;9.80;99.90;;;;;;5069414;28;20535;-65
2021/05/17 04:25:38;;;;;;;7.40;3.47;;;9.80;99.90;;;;;;5070329;28;20035;-65
2021/05/17 04:28:09;;;;;;;6.93;3.70;;;9.90;99.90;;;;;;5068623;28;20032;-65
2021/05/17 04:30:37;;;;;;;6.57;3.75;;;9.80;99.90;;;;;;5068454;28;20043;-66
2021/05/17 04:33:03;;;;;;;7.28;3.30;;;9.90;99.90;;;;;;5077382;28;20032;-65
2021/05/17 04:35:28;;;;;;;10.15;4.25;;;9.90;99.90;;;;;;5079936;28;20085;-65
2021/05/17 04:37:54;;;;;;;6.10;3.70;;;9.90;99.90;;;;;;5077116;28;20039;-66
2021/05/17 04:40:22;;;;;;;7.22;3.90;;;9.90;99.90;;;;;;5078861;28;20083;-65
2021/05/17 04:42:50;;;;;;;10.40;4.78;;;9.90;99.90;;;;;;5093821;28;20024;-65
2021/05/17 04:45:23;;;;;;;6.82;4.10;;;9.90;99.90;;;;;;5073314;28;20110;-65
2021/05/17 04:47:50;;;;;;;8.20;4.00;;;9.90;99.90;;;;;;5077429;28;20028;-66
2021/05/17 04:50:15;;;;;;;8.35;3.97;;;9.90;99.90;;;;;;5068627;28;20024;-67
2021/05/17 04:52:43;;;;;;;6.45;3.42;;;9.90;99.90;;;;;;5046708;28;20042;-66
2021/05/17 04:55:09;;;;;;;8.13;3.95;;;9.90;99.90;;;;;;5077100;28;20091;-66
2021/05/17 04:57:37;;;;;;;5.78;3.53;;;9.90;99.90;;;;;;5068376;28;20141;-66
2021/05/17 05:00:07;;;;;;;6.82;3.90;;;9.90;99.90;;;;;;5068079;28;20039;-66
2021/05/17 05:02:32;;;;;;;6.85;4.30;;;9.90;99.90;;;;;;5067730;28;20064;-67
2021/05/17 05:04:58;;;;;;;8.10;4.60;;;9.90;99.90;;;;;;5059883;28;20123;-68
2021/05/17 05:07:26;;;;;;;7.18;4.47;;;9.90;99.90;;;;;;5067674;28;20465;-66
2021/05/17 05:09:54;;;;;;;6.03;3.88;;;9.90;99.90;;;;;;5067335;28;20408;-66
2021/05/17 05:12:22;;;;;;;8.25;4.00;;;10.00;99.90;;;;;;5055943;28;20040;-66
2021/05/17 05:14:47;;;;;;;8.75;5.38;;;10.10;99.90;;;;;;5081327;28;20528;-66
2021/05/17 05:17:13;;;;;;;10.45;5.20;;;10.10;99.90;;;;;;5071458;28;20040;-66
2021/05/17 05:19:39;;;;;;;7.32;4.70;;;10.10;99.90;;;;;;5068891;28;20033;-66
2021/05/17 05:22:04;;;;;;;8.70;4.90;;;10.10;99.90;;;;;;5068758;28;20056;-66
2021/05/17 05:24:30;;;;;;;8.18;4.85;;;10.20;99.90;;;;;;5067548;28;20111;-66
2021/05/17 05:27:09;;;;;;;7.65;4.57;;;10.30;99.90;;;;;;5068868;28;20102;-66
2021/05/17 05:32:30;;;;;;;9.70;5.95;;;10.30;99.90;;;;;;5068627;28;21402;-66
2021/05/17 05:34:55;;;;;;;8.43;5.82;;;10.40;99.90;;;;;;5069024;28;20019;-66
2021/05/17 05:37:21;;;;;;;12.23;6.47;;;10.40;99.90;;;;;;5067439;28;20033;-66
2021/05/17 05:39:49;;;;;;;8.40;5.68;;;10.40;99.90;;;;;;5070098;28;20105;-66
2021/05/17 05:42:20;;;;;;;8.23;5.90;;;10.50;99.90;;;;;;5069986;28;20032;-66
2021/05/17 05:44:47;;;;;;;8.27;5.18;;;10.50;99.90;;;;;;5079273;28;20392;-66
2021/05/17 05:47:15;;;;;;;7.18;5.20;;;10.40;99.90;;;;;;5072997;28;20380;-66
2021/05/17 05:49:42;;;;;;;8.05;5.43;;;10.50;99.90;;;;;;5070018;28;20032;-67
2021/05/17 05:52:10;;;;;;;10.27;5.45;;;10.60;99.90;;;;;;5061668;28;20023;-66
2021/05/17 05:54:38;;;;;;;8.40;5.32;;;10.50;99.90;;;;;;5069400;28;20117;-66
2021/05/17 05:57:05;;;;;;;7.68;4.93;;;10.50;99.90;;;;;;5068975;28;20100;-66
2021/05/17 05:59:33;;;;;;;7.05;5.13;;;10.60;99.90;;;;;;5066928;28;20024;-66
2021/05/17 06:02:05;;;;;;;7.40;4.70;;;10.70;99.90;;;;;;5068503;28;20024;-67
2021/05/17 06:04:30;;;;;;;9.93;5.23;;;10.70;99.90;;;;;;5057477;28;20043;-66
2021/05/17 06:06:56;;;;;;;6.75;4.50;;;10.70;99.90;;;;;;5067096;28;20028;-66
2021/05/17 06:09:24;;;;;;;7.15;4.28;;;10.70;99.90;;;;;;5067249;28;20024;-66
2021/05/17 06:11:55;;;;;;;6.85;4.38;;;10.70;99.90;;;;;;5067963;28;20048;-66
2021/05/17 06:14:23;;;;;;;5.75;4.03;;;10.80;99.90;;;;;;5068369;28;20436;-66
2021/05/17 06:16:52;;;;;;;12.10;5.40;;;10.90;99.90;;;;;;5075114;28;20460;-66
2021/05/17 06:19:20;;;;;;;10.90;7.05;;;10.90;99.90;;;;;;5077404;28;20149;-67
2021/05/17 06:21:51;;;;;;;6.30;4.00;;;10.90;99.90;;;;;;5075650;28;20048;-66
2021/05/17 06:24:19;;;;;;;6.43;3.42;;;11.00;99.90;;;;;;5077377;28;20028;-66
2021/05/17 06:26:48;;;;;;;7.70;3.40;;;11.00;99.90;;;;;;5073599;28;20024;-66
2021/05/17 06:29:14;;;;;;;7.45;3.30;;;11.00;99.90;;;;;;5076661;28;20032;-66
2021/05/17 06:31:44;;;;;;;8.32;3.78;;;11.10;99.90;;;;;;5074400;28;20020;-66
2021/05/17 06:34:12;;;;;;;6.82;3.28;;;10.90;99.90;;;;;;5077952;28;20718;-66
2021/05/17 06:36:40;;;;;;;7.00;4.20;;;11.00;99.90;;;;;;5076712;28;20100;-65
2021/05/17 06:39:09;;;;;;;6.43;3.30;;;11.00;99.90;;;;;;5075852;28;20020;-67
2021/05/17 06:41:36;;;;;;;5.40;2.88;;;11.00;99.90;;;;;;5077079;28;20062;-66
2021/05/17 06:44:02;;;;;;;6.47;4.18;;;11.10;99.90;;;;;;5079842;28;20081;-66
2021/05/17 06:46:27;;;;;;;5.95;2.97;;;11.10;99.90;;;;;;5081083;28;20333;-66
2021/05/17 06:48:56;;;;;;;5.20;2.83;;;11.10;99.90;;;;;;5079114;28;20024;-66
2021/05/17 06:51:24;;;;;;;4.45;2.80;;;11.00;99.90;;;;;;5081414;28;20020;-66
2021/05/17 06:53:56;;;;;;;5.32;2.92;;;11.10;99.90;;;;;;5083233;28;20453;-66
2021/05/17 06:56:28;;;;;;;;;;;11.10;99.90;;;;;;5080883;28;20024;-66
2021/05/17 06:58:58;;;;;;;5.70;2.50;;;11.20;99.90;;;;;;5080801;28;19912;-66
2021/05/17 07:01:27;;;;;;;4.43;2.40;;;11.10;99.90;;;;;;5078741;28;20133;-66
2021/05/17 07:03:55;;;;;;;5.13;2.60;;;11.20;99.90;;;;;;5083371;28;20517;-65
2021/05/17 07:06:27;;;;;;;5.70;2.47;;;11.30;99.90;;;;;;5079012;28;20043;-67
2021/05/17 07:11:45;;;;;;;5.55;2.50;;;11.40;99.90;;;;;;5078235;28;20035;-65
2021/05/17 07:14:12;;;;;;;4.75;2.40;;;11.50;99.90;;;;;;5079452;28;20123;-66
2021/05/17 07:16:37;;;;;;;4.45;2.30;;;11.50;99.90;;;;;;5068706;28;20039;-66
2021/05/17 07:19:06;;;;;;;4.60;2.30;;;11.60;99.90;;;;;;5083420;28;20020;-66
2021/05/17 07:24:16;;;;;;;3.90;2.10;;;11.70;99.90;;;;;;5080401;28;20089;-66
2021/05/17 07:26:44;;;;;;;4.03;1.80;;;11.80;99.90;;;;;;5078744;28;20535;-66
2021/05/17 07:29:14;;;;;;;7.28;2.30;;;11.80;99.90;;;;;;5078714;28;20081;-66
2021/05/17 07:31:42;;;;;;;4.95;2.20;;;11.80;99.90;;;;;;5079381;28;20040;-66
2021/05/17 07:34:08;;;;;;;5.20;2.30;;;11.80;99.90;;;;;;5079213;28;20144;-66
2021/05/17 07:36:38;;;;;;;4.65;2.30;;;11.90;99.90;;;;;;5077415;28;20249;-66
2021/05/17 07:39:06;;;;;;;6.32;2.20;;;11.90;99.90;;;;;;5078493;28;20039;-66
2021/05/17 07:41:34;;;;;;;3.92;2.10;;;12.00;99.90;;;;;;5094304;28;20021;-66
2021/05/17 07:44:05;;;;;;;6.05;2.10;;;12.10;99.90;;;;;;5080955;28;20479;-66
2021/05/17 07:46:30;;;;;;;5.60;1.95;;;12.10;99.90;;;;;;5077635;28;20032;-66
2021/05/17 07:49:10;;;;;;;6.65;2.10;;;12.10;99.90;;;;;;5080298;28;20028;-66
2021/05/17 07:51:42;;;;;;;5.70;2.80;;;12.20;99.90;;;;;;5077966;28;20365;-65
2021/05/17 07:54:09;;;;;;;4.97;2.75;;;12.20;99.90;;;;;;5078331;28;20033;-66
2021/05/17 07:56:37;;;;;;;5.15;2.20;;;12.30;99.90;;;;;;5080110;28;20047;-66
2021/05/17 07:59:03;;;;;;;6.05;2.00;;;12.30;99.90;;;;;;5077714;28;20028;-66
2021/05/17 08:01:28;;;;;;;5.18;2.20;;;12.30;99.90;;;;;;5078267;28;20024;-65
2021/05/17 08:03:56;;;;;;;5.50;2.75;;;12.50;99.90;;;;;;5076216;28;20358;-66
2021/05/17 08:06:24;;;;;;;4.47;2.10;;;12.60;99.90;;;;;;5077776;28;20039;-66
2021/05/17 08:08:51;;;;;;;5.47;2.17;;;12.40;99.90;;;;;;5079215;28;20035;-66
2021/05/17 08:11:17;;;;;;;6.93;2.90;;;12.50;99.90;;;;;;5066099;28;20038;-66
2021/05/17 08:13:43;;;;;;;7.38;2.63;;;12.50;99.90;;;;;;5073838;28;20046;-66
2021/05/17 08:16:09;;;;;;;5.90;2.75;;;12.40;99.90;;;;;;5077528;28;20353;-66
2021/05/17 08:18:35;;;;;;;6.32;2.60;;;12.40;99.90;;;;;;5075420;28;20024;-66
2021/05/17 08:21:01;;;;;;;4.03;2.03;;;12.30;99.90;;;;;;5077944;28;20042;-65
2021/05/17 08:23:30;;;;;;;5.88;2.40;;;12.00;99.90;;;;;;5074930;28;20048;-66
2021/05/17 08:25:58;;;;;;;4.60;2.20;;;12.20;99.90;;;;;;5077640;28;20959;-66
2021/05/17 08:28:26;;;;;;;4.95;2.20;;;12.20;99.90;;;;;;5077939;28;20023;-66
2021/05/17 08:30:55;;;;;;;5.80;2.30;;;12.20;99.90;;;;;;5079861;28;20032;-66
2021/05/17 08:33:22;;;;;;;7.15;2.30;;;12.40;99.90;;;;;;5076919;28;20042;-65
2021/05/17 08:35:50;;;;;;;5.55;1.92;;;12.40;99.90;;;;;;5078310;28;20058;-66
2021/05/17 08:38:16;;;;;;;6.45;2.40;;;12.40;99.90;;;;;;5080455;28;20017;-66
2021/05/17 08:40:42;;;;;;;5.70;2.10;;;12.70;99.90;;;;;;5064817;28;20427;-66
2021/05/17 08:43:08;;;;;;;7.15;2.00;;;12.70;99.90;;;;;;5063478;28;20030;-66
2021/05/17 08:45:36;;;;;;;7.82;2.40;;;12.80;99.90;;;;;;5074624;28;20378;-66
2021/05/17 08:48:05;;;;;;;7.50;2.28;;;12.90;99.90;;;;;;5079096;28;20101;-66
2021/05/17 08:50:31;;;;;;;4.68;1.70;;;12.80;99.90;;;;;;5075016;28;20036;-66
2021/05/17 08:52:59;;;;;;;5.47;1.80;;;12.90;99.90;;;;;;5076814;28;21903;-67
2021/05/17 08:55:25;;;;;;;9.88;5.72;;;12.80;99.90;;;;;;5076079;28;20051;-66
2021/05/17 08:57:52;;;;;;;4.80;1.98;;;13.00;99.90;;;;;;5076658;28;20063;-66
2021/05/17 09:00:21;;;;;;;3.72;1.60;;;13.10;99.90;;;;;;5078956;28;20042;-66
2021/05/17 09:02:46;;;;;;;5.38;1.83;;;13.20;99.90;;;;;;5076364;28;20094;-67
2021/05/17 09:05:16;;;;;;;4.20;1.77;;;13.30;99.90;;;;;;5075157;28;20454;-66
2021/05/17 09:07:50;;;;;;;5.72;1.77;;;13.30;99.90;;;;;;5072018;28;21923;-68
2021/05/17 09:10:27;;;;;;;7.47;2.00;;;13.40;99.90;;;;;;5072484;28;20025;-65
2021/05/17 09:12:59;;;;;;;6.13;1.90;;;13.40;99.90;;;;;;5058308;28;20389;-66
2021/05/17 09:15:46;;;;;;;4.60;1.60;;;13.50;99.90;;;;;;5067508;28;20036;-66
2021/05/17 09:18:17;;;;;;;4.18;1.63;;;13.70;99.90;;;;;;5074731;28;20032;-67
2021/05/17 09:20:46;;;;;;;5.72;1.80;;;13.70;99.90;;;;;;5073343;28;20036;-66
2021/05/17 09:23:27;;;;;;;5.10;1.50;;;13.60;99.90;;;;;;5076009;28;20060;-66
2021/05/17 09:25:56;;;;;;;4.88;1.83;;;13.50;99.90;;;;;;5078424;28;20123;-65
2021/05/17 09:28:27;;;;;;;5.00;1.70;;;13.40;99.90;;;;;;5074950;28;20054;-67
2021/05/17 09:31:03;;;;;;;4.80;1.50;;;13.30;99.90;;;;;;5074602;28;20067;-66
2021/05/17 09:33:29;;;;;;;5.38;1.60;;;13.20;99.90;;;;;;5077859;28;20024;-67
2021/05/17 09:35:57;;;;;;;3.65;1.40;;;13.10;99.90;;;;;;5075339;28;20105;-65
2021/05/17 09:38:28;;;;;;;3.95;1.25;;;12.80;99.90;;;;;;5077389;28;20590;-65
2021/05/17 09:41:08;;;;;;;5.28;1.45;;;12.60;99.90;;;;;;5080170;28;20040;-66
2021/05/17 09:43:36;;;;;;;6.32;1.80;;;12.60;99.90;;;;;;5061468;28;20146;-66
2021/05/17 09:46:02;;;;;;;5.00;1.60;;;12.50;99.90;;;;;;5081521;28;20900;-66
2021/05/17 09:48:46;;;;;;;6.28;1.75;;;12.50;99.90;;;;;;5077379;28;20089;-66
2021/05/17 09:51:12;;;;;;;4.35;1.52;;;12.40;99.90;;;;;;5077622;28;20032;-66
2021/05/17 09:53:42;;;;;;;10.90;6.55;;;12.50;99.90;;;;;;5075410;28;20032;-66
2021/05/17 09:56:12;;;;;;;6.40;1.70;;;12.50;99.90;;;;;;5075430;28;20024;-65
2021/05/17 09:58:44;;;;;;;4.10;1.58;;;12.50;99.90;;;;;;5079104;28;20020;-66
2021/05/17 10:01:13;;;;;;;5.50;1.60;;;12.50;99.90;;;;;;5061938;28;20048;-64
2021/05/17 10:03:44;;;;;;;4.35;1.80;;;12.50;99.90;;;;;;5075871;28;20040;-65
2021/05/17 10:06:18;;;;;;;6.78;2.10;;;12.50;99.90;;;;;;5077057;28;20154;-66
2021/05/17 10:08:46;;;;;;;5.78;2.22;;;12.40;99.90;;;;;;5079713;28;20070;-66
2021/05/17 10:11:11;;;;;;;5.57;2.30;;;12.30;99.90;;;;;;5075670;28;20024;-66
2021/05/17 10:13:37;;;;;;;6.20;2.70;;;12.40;99.90;;;;;;5077050;28;20071;-66
2021/05/17 10:16:05;;;;;;;4.70;2.30;;;12.50;99.90;;;;;;5059064;28;20053;-66
2021/05/17 10:18:34;;;;;;;5.78;2.17;;;12.60;99.90;;;;;;5078496;28;20526;-66
2021/05/17 10:21:03;;;;;;;5.50;2.25;;;12.70;99.90;;;;;;5078117;28;20149;-65
2021/05/17 10:23:29;;;;;;;6.88;2.67;;;13.00;99.90;;;;;;5069824;28;21516;-66
2021/05/17 10:26:08;;;;;;;5.22;2.10;;;13.20;99.90;;;;;;5077058;28;20020;-66
2021/05/17 10:28:34;;;;;;;6.32;2.35;;;13.10;99.90;;;;;;5067880;28;20032;-65
2021/05/17 10:31:13;;;;;;;3.67;2.10;;;13.20;99.90;;;;;;5064729;28;20035;-65
2021/05/17 10:33:43;;;;;;;4.78;1.77;;;13.10;99.90;;;;;;5079402;28;20028;-65
2021/05/17 10:36:11;;;;;;;4.80;1.85;;;13.10;99.90;;;;;;5081664;28;20463;-66
2021/05/17 10:38:50;;;;;;;2.88;1.80;;;13.10;99.90;;;;;;5061777;28;20035;-66
2021/05/17 10:41:34;;;;;;;3.55;1.35;;;13.20;99.90;;;;;;5078143;28;20035;-66
2021/05/17 10:46:54;;;;;;;2.45;1.30;;;13.20;99.90;;;;;;5078189;28;20043;-65
2021/05/17 10:49:39;;;;;;;2.78;1.40;;;13.30;99.90;;;;;;5078521;28;20029;-65
2021/05/17 10:52:06;;;;;;;2.70;1.40;;;13.60;99.90;;;;;;5070587;28;20034;-66
2021/05/17 10:54:47;;;;;;;3.30;1.23;;;13.50;99.90;;;;;;5079526;28;20161;-66
2021/05/17 10:57:18;;;;;;;3.05;1.13;;;13.60;99.90;;;;;;5096108;27;20047;-66
2021/05/17 11:02:38;;;;;;;2.72;1.30;;;13.90;99.90;;;;;;5079800;28;20567;-66
2021/05/17 11:05:19;;;;;;;3.33;1.27;;;14.30;99.90;;;;;;5078828;28;20028;-65
2021/05/17 11:08:02;;;;;;;2.43;1.00;;;14.40;99.90;;;;;;5079400;28;20046;-66
2021/05/17 11:10:40;;;;;;;1.65;1.00;;;14.40;99.90;;;;;;5081096;28;20301;-65
2021/05/17 11:13:11;;;;;;;3.80;1.13;;;14.40;99.90;;;;;;5078100;28;20367;-65
2021/05/17 11:15:43;;;;;;;3.08;1.25;;;14.50;99.90;;;;;;5077809;28;20040;-66
2021/05/17 11:18:09;;;;;;;3.83;1.30;;;14.40;99.90;;;;;;5077179;28;20038;-66
2021/05/17 11:20:44;;;;;;;2.92;1.15;;;14.20;99.90;;;;;;5085757;28;20086;-66
2021/05/17 11:23:11;;;;;;;3.97;1.40;;;14.10;99.90;;;;;;5082240;28;20055;-68
2021/05/17 11:26:12;;;;;;;3.47;1.25;;;13.90;99.90;;;;;;4725234;28;9999675;-66
2021/05/17 11:28:38;;;;;;;1.95;1.20;;;13.80;99.90;;;;;;5091882;28;20131;-67
2021/05/17 11:31:30;;;;;;;3.13;1.20;;;13.70;99.90;;;;;;5077779;28;20024;-66
2021/05/17 11:34:03;;;;;;;2.70;1.20;;;13.60;99.90;;;;;;5067918;28;20020;-66
2021/05/17 11:36:30;;;;;;;5.00;1.42;;;13.60;99.90;;;;;;5075835;28;20016;-66
2021/05/17 11:39:11;;;;;;;5.20;1.38;;;13.50;99.90;;;;;;5074673;28;20059;-64
2021/05/17 11:41:44;;;;;;;4.03;1.30;;;13.30;99.90;;;;;;5075849;28;20025;-64
2021/05/17 11:44:38;;;;;;;5.78;1.50;;;13.30;99.90;;;;;;5074161;28;20025;-65
2021/05/17 11:47:09;;;;;;;1.98;1.05;;;13.20;99.90;;;;;;5076694;28;20176;-66
2021/05/17 11:49:41;;;;;;;4.03;1.80;;;13.20;99.90;;;;;;5078324;28;20027;-64
2021/05/17 11:52:09;;;;;;;3.50;1.25;;;13.30;99.90;;;;;;5077499;28;20035;-64
2021/05/17 11:54:43;;;;;;;3.75;0.98;;;13.40;99.90;;;;;;5077161;28;20162;-64
2021/05/17 11:57:11;;;;;;;3.85;1.10;;;13.50;99.90;;;;;;5074766;28;20043;-64
2021/05/17 11:59:37;;;;;;;2.53;1.00;;;13.50;99.90;;;;;;5076302;28;20040;-64
2021/05/17 12:02:07;;;;;;;3.50;1.10;;;13.40;99.90;;;;;;5076985;28;20614;-64
2021/05/17 12:04:41;;;;;;;4.03;1.00;;;13.40;99.90;;;;;;5074202;28;20036;-64
2021/05/17 12:07:16;;;;;;;2.45;1.00;;;13.40;99.90;;;;;;5074871;28;20016;-65
2021/05/17 12:09:52;;;;;;;3.17;1.00;;;13.40;99.90;;;;;;4708350;28;10000250;-64
2021/05/17 12:12:25;;;;;;;3.58;1.17;;;13.10;99.90;;;;;;5056863;28;20085;-66
2021/05/17 12:14:58;;;;;;;2.05;1.00;;;13.20;99.90;;;;;;5065919;28;20024;-67
2021/05/17 12:17:32;;;;;;;3.33;1.20;;;13.10;99.90;;;;;;5076572;28;20042;-67
2021/05/17 12:20:04;;;;;;;2.53;1.20;;;12.90;99.90;;;;;;5076744;28;20146;-67
2021/05/17 12:22:39;;;;;;;3.42;1.40;;;13.00;99.90;;;;;;5060975;28;20131;-67
2021/05/17 12:25:10;;;;;;;3.30;1.38;;;13.00;99.90;;;;;;5075940;28;20419;-64
2021/05/17 12:27:38;;;;;;;3.08;1.38;;;13.30;99.90;;;;;;5060146;28;20528;-64
2021/05/17 12:30:14;;;;;;;5.15;1.52;;;13.50;99.90;;;;;;5077148;28;20035;-64
2021/05/17 12:32:54;;;;;;;3.88;1.40;;;13.90;99.90;;;;;;5079430;28;20350;-64
2021/05/17 12:35:36;;;;;;;3.10;1.20;;;14.20;99.90;;;;;;5076408;28;20050;-64
2021/05/17 12:38:19;;;;;;;3.35;1.10;;;14.40;99.90;;;;;;5079439;28;20470;-64
2021/05/17 12:40:57;;;;;;;4.65;1.23;;;14.70;99.90;;;;;;5076174;28;20436;-64
2021/05/17 12:43:26;;;;;;;3.83;1.15;;;15.00;99.90;;;;;;5076880;28;20044;-64
2021/05/17 12:45:55;;;;;;;4.47;1.20;;;15.00;99.90;;;;;;5076125;28;20020;-64
2021/05/17 12:48:21;;;;;;;3.67;1.10;;;15.30;99.90;;;;;;5078933;28;20029;-64
2021/05/17 12:50:51;;;;;;;3.22;1.30;;;15.00;99.90;;;;;;5077135;28;20541;-64
2021/05/17 12:53:19;;;;;;;2.75;1.13;;;15.40;99.90;;;;;;5080344;28;20036;-65
2021/05/17 12:55:52;;;;;;;3.65;1.30;;;15.30;99.90;;;;;;5078161;28;20036;-64
2021/05/17 12:58:31;;;;;;;2.80;1.10;;;15.70;99.90;;;;;;5075741;28;20033;-65
2021/05/17 13:00:56;;;;;;;3.28;1.08;;;15.70;99.90;;;;;;5080425;28;20051;-64
2021/05/17 13:03:33;;;;;;;2.80;1.10;;;16.10;99.90;;;;;;5080183;28;20119;-65
2021/05/17 13:06:23;;;;;;;3.70;1.13;;;16.30;99.90;;;;;;5075828;28;20059;-64
2021/05/17 13:08:51;;;;;;;2.30;1.10;;;16.40;99.90;;;;;;5075862;28;20112;-64
2021/05/17 13:11:26;;;;;;;1.88;1.00;;;16.50;99.90;;;;;;5080194;28;20495;-65
2021/05/17 13:14:27;;;;;;;2.50;1.00;;;16.60;99.90;;;;;;5059216;28;20024;-65
2021/05/17 13:16:54;;;;;;;1.83;0.90;;;16.50;93.00;;;;;;5074836;28;20059;-64
2021/05/17 13:33:00;;;;;;;2.28;0.90;;;16.20;85.80;;;;;;5075882;28;20115;-65
2021/05/17 13:35:26;;;;;;;3.63;1.30;;;15.90;92.50;;;;;;5074527;28;20160;-65